createdAt,value
2023-06-22T00:00:43.672Z,101791.66
2023-06-22T00:03:12.251Z,101793.53
2023-06-22T00:05:40.943Z,101793.31
2023-06-22T00:08:09.155Z,101788.78
2023-06-22T00:10:37.440Z,101790.03
2023-06-22T00:13:05.854Z,101793.47
2023-06-22T00:15:35.564Z,101790.81
2023-06-22T00:18:04.145Z,101799.25
2023-06-22T00:20:33.782Z,101802.94
2023-06-22T00:23:02.769Z,101817.31
2023-06-22T00:25:30.962Z,101819.34
2023-06-22T00:27:59.190Z,101821.00
2023-06-22T00:30:27.861Z,101822.66
2023-06-22T00:32:58.002Z,101829.22
2023-06-22T00:35:29.973Z,101836.81
2023-06-22T00:38:02.305Z,101840.28
2023-06-22T00:40:30.946Z,101842.53
2023-06-22T00:42:59.685Z,101853.44
2023-06-22T00:45:29.004Z,101853.19
2023-06-22T00:48:00.305Z,101859.94
2023-06-22T00:50:35.064Z,101862.00
2023-06-22T00:53:10.220Z,101872.03
2023-06-22T00:55:40.271Z,101872.63
2023-06-22T00:58:12.134Z,101873.03
2023-06-22T01:00:41.428Z,101874.03
2023-06-22T01:03:12.132Z,101882.44
2023-06-22T01:05:41.693Z,101879.53
2023-06-22T01:08:26.447Z,101880.53
2023-06-22T01:11:00.823Z,101885.47
2023-06-22T01:13:35.197Z,101882.16
2023-06-22T01:16:05.788Z,101883.38
2023-06-22T01:18:39.078Z,101889.75
2023-06-22T01:21:09.794Z,101889.91
2023-06-22T01:23:56.378Z,101894.22
2023-06-22T01:26:33.679Z,101896.47
2023-06-22T01:29:06.233Z,101895.81
2023-06-22T01:31:36.137Z,101891.25
2023-06-22T01:34:08.771Z,101896.94
2023-06-22T01:36:37.795Z,101894.84
2023-06-22T01:39:07.946Z,101896.25
2023-06-22T01:41:39.503Z,101906.69
2023-06-22T01:44:11.186Z,101902.94
2023-06-22T01:46:40.774Z,101901.28
2023-06-22T01:49:10.612Z,101895.34
2023-06-22T01:51:38.801Z,101897.81
2023-06-22T01:54:09.422Z,101902.31
2023-06-22T01:56:38.144Z,101894.31
2023-06-22T01:59:14.428Z,101905.00
2023-06-22T02:01:46.761Z,101898.00
2023-06-22T02:04:21.559Z,101909.50
2023-06-22T02:06:57.060Z,101910.69
2023-06-22T02:09:27.822Z,101911.06
2023-06-22T02:11:59.099Z,101910.25
2023-06-22T02:14:29.819Z,101916.41
2023-06-22T02:17:00.257Z,101920.50
2023-06-22T02:19:34.460Z,101921.69
2023-06-22T02:22:02.775Z,101919.22
2023-06-22T02:24:34.574Z,101909.53
2023-06-22T02:27:04.163Z,101915.88
2023-06-22T02:29:33.796Z,101920.84
2023-06-22T02:32:02.149Z,101920.84
2023-06-22T02:34:30.997Z,101916.34
2023-06-22T02:37:03.674Z,101922.69
2023-06-22T02:39:31.975Z,101915.88
2023-06-22T02:42:00.186Z,101911.13
2023-06-22T02:44:28.514Z,101922.81
2023-06-22T02:46:58.334Z,101916.66
2023-06-22T02:49:26.645Z,101921.16
2023-06-22T02:51:56.211Z,101930.34
2023-06-22T02:54:24.487Z,101931.19
2023-06-22T02:56:53.116Z,101928.72
2023-06-22T02:59:24.661Z,101927.88
2023-06-22T03:01:53.729Z,101922.34
2023-06-22T03:04:23.326Z,101923.19
2023-06-22T03:06:52.521Z,101918.69
2023-06-22T03:09:21.000Z,101932.03
2023-06-22T03:11:49.161Z,101933.03
2023-06-22T03:14:17.362Z,101932.19
2023-06-22T03:16:45.569Z,101933.22
2023-06-22T03:19:13.746Z,101935.06
2023-06-22T03:21:43.425Z,101931.38
2023-06-22T03:24:11.649Z,101922.91
2023-06-22T03:26:39.929Z,101922.66
2023-06-22T03:29:08.202Z,101919.53
2023-06-22T03:31:36.532Z,101925.25
2023-06-22T03:34:04.927Z,101912.75
2023-06-22T03:36:33.157Z,101917.06
2023-06-22T03:39:02.878Z,101917.25
2023-06-22T03:41:31.129Z,101912.28
2023-06-22T03:43:59.457Z,101911.47
2023-06-22T03:46:28.119Z,101918.84
2023-06-22T03:48:56.277Z,101916.75
2023-06-22T03:51:24.596Z,101913.41
2023-06-22T03:53:52.793Z,101910.75
2023-06-22T03:56:22.429Z,101916.75
2023-06-22T03:58:52.745Z,101917.16
2023-06-22T04:01:21.336Z,101923.34
2023-06-22T04:03:50.872Z,101921.25
2023-06-22T04:06:19.148Z,101920.38
2023-06-22T04:08:52.306Z,101920.38
2023-06-22T04:11:22.275Z,101920.38
2023-06-22T04:13:52.635Z,101931.91
2023-06-22T04:16:20.892Z,101932.91
2023-06-22T04:18:49.202Z,101939.25
2023-06-22T04:21:17.418Z,101940.28
2023-06-22T04:23:47.238Z,101941.09
2023-06-22T04:26:16.350Z,101943.28
2023-06-22T04:28:52.929Z,101940.28
2023-06-22T04:31:21.334Z,101945.41
2023-06-22T04:33:49.517Z,101945.50
2023-06-22T04:36:17.735Z,101945.78
2023-06-22T04:38:46.221Z,101942.16
2023-06-22T04:41:24.981Z,101943.44
2023-06-22T04:43:58.752Z,101947.38
2023-06-22T04:46:26.986Z,101950.88
2023-06-22T04:48:55.166Z,101946.34
2023-06-22T04:51:23.846Z,101953.44
2023-06-22T04:53:52.115Z,101945.69
2023-06-22T04:56:23.040Z,101942.66
2023-06-22T04:58:52.871Z,101950.66
2023-06-22T05:01:23.284Z,101956.16
2023-06-22T05:03:51.548Z,101952.50
2023-06-22T05:06:20.106Z,101948.41
2023-06-22T05:08:48.419Z,101942.72
2023-06-22T05:11:16.580Z,101945.19
2023-06-22T05:13:44.893Z,101954.03
2023-06-22T05:16:13.104Z,101955.75
2023-06-22T05:18:43.117Z,101960.97
2023-06-22T05:21:11.510Z,101968.03
2023-06-22T05:23:39.719Z,101964.59
2023-06-22T05:26:10.707Z,101963.50
2023-06-22T05:28:38.931Z,101959.03
2023-06-22T05:31:07.133Z,101959.19
2023-06-22T05:33:35.595Z,101951.47
2023-06-22T05:36:05.570Z,101949.84
2023-06-22T05:38:33.816Z,101947.13
2023-06-22T05:41:02.735Z,101940.31
2023-06-22T05:43:31.010Z,101942.69
2023-06-22T05:45:59.942Z,101939.53
2023-06-22T05:48:28.083Z,101952.53
2023-06-22T05:50:56.723Z,101943.66
2023-06-22T05:53:26.498Z,101941.34
2023-06-22T05:55:54.744Z,101938.38
2023-06-22T05:58:22.995Z,101935.06
2023-06-22T06:00:51.376Z,101940.13
2023-06-22T06:03:19.577Z,101939.22
2023-06-22T06:05:47.849Z,101944.66
2023-06-22T06:08:16.361Z,101953.81
2023-06-22T06:10:45.993Z,101955.00
2023-06-22T06:13:14.320Z,101959.69
2023-06-22T06:15:42.686Z,101958.06
2023-06-22T06:18:10.933Z,101960.47
2023-06-22T06:20:39.329Z,101954.81
2023-06-22T06:23:07.587Z,101969.81
2023-06-22T06:25:35.846Z,101966.03
2023-06-22T06:28:06.136Z,101968.06
2023-06-22T06:30:34.811Z,101968.88
2023-06-22T06:33:03.214Z,101974.34
2023-06-22T06:35:31.906Z,101970.59
2023-06-22T06:38:00.200Z,101968.97
2023-06-22T06:40:28.816Z,101971.69
2023-06-22T06:42:57.666Z,101975.06
2023-06-22T06:45:29.728Z,101975.88
2023-06-22T06:47:58.001Z,101983.28
2023-06-22T06:50:26.340Z,101982.41
2023-06-22T06:52:54.679Z,101982.06
2023-06-22T06:55:25.324Z,101982.75
2023-06-22T06:57:53.761Z,101984.59
2023-06-22T07:00:23.333Z,101987.28
2023-06-22T07:02:53.050Z,101988.28
2023-06-22T07:05:21.512Z,101992.69
2023-06-22T07:07:50.230Z,101996.16
2023-06-22T07:10:18.495Z,101994.59
2023-06-22T07:12:46.599Z,101998.47
2023-06-22T07:15:15.862Z,102001.41
2023-06-22T07:17:44.067Z,101992.19
2023-06-22T07:20:15.088Z,101999.44
2023-06-22T07:22:45.869Z,101998.31
2023-06-22T07:25:16.757Z,101998.13
2023-06-22T07:27:58.677Z,101992.66
2023-06-22T07:30:27.376Z,101996.66
2023-06-22T07:32:56.126Z,102002.38
2023-06-22T07:35:26.328Z,101999.38
2023-06-22T07:37:54.487Z,102003.22
2023-06-22T07:40:22.771Z,102004.34
2023-06-22T07:42:52.886Z,102001.94
2023-06-22T07:45:21.449Z,102009.38
2023-06-22T07:47:49.670Z,102005.94
2023-06-22T07:50:18.099Z,102015.91
2023-06-22T07:52:48.661Z,102011.19
2023-06-22T07:55:16.993Z,102013.50
2023-06-22T07:57:45.250Z,102012.94
2023-06-22T08:00:16.526Z,102012.09
2023-06-22T08:02:48.350Z,102016.44
2023-06-22T08:05:22.483Z,102017.69
2023-06-22T08:07:52.706Z,102016.84
2023-06-22T08:10:21.538Z,102012.94
2023-06-22T08:12:49.940Z,102009.22
2023-06-22T08:15:18.413Z,102013.72
2023-06-22T08:17:47.352Z,102021.78
2023-06-22T08:20:15.763Z,102021.56
2023-06-22T08:22:44.920Z,102020.34
2023-06-22T08:25:15.698Z,102015.00
2023-06-22T08:27:48.219Z,102022.00
2023-06-22T08:30:17.209Z,102015.78
2023-06-22T08:32:45.410Z,102016.63
2023-06-22T08:35:16.180Z,102015.38
2023-06-22T08:37:44.538Z,102023.22
2023-06-22T08:40:14.884Z,102018.69
2023-06-22T08:42:43.719Z,102018.06
2023-06-22T08:45:21.960Z,102019.91
2023-06-22T08:47:50.152Z,102027.78
2023-06-22T08:50:18.424Z,102034.16
2023-06-22T08:52:47.065Z,102031.06
2023-06-22T08:55:16.691Z,102024.47
2023-06-22T08:57:45.194Z,102022.00
2023-06-22T09:00:18.860Z,102027.38
2023-06-22T09:02:47.953Z,102021.16
2023-06-22T09:05:17.185Z,102033.34
2023-06-22T09:07:45.783Z,102033.13
2023-06-22T09:10:14.048Z,102029.00
2023-06-22T09:12:46.757Z,102033.13
2023-06-22T09:15:17.470Z,102042.19
2023-06-22T09:17:47.890Z,102034.38
2023-06-22T09:20:16.908Z,102039.56
2023-06-22T09:22:45.117Z,102050.03
2023-06-22T09:25:13.791Z,102042.84
2023-06-22T09:27:43.373Z,102045.31
2023-06-22T09:30:12.115Z,102050.66
2023-06-22T09:32:40.472Z,102050.25
2023-06-22T09:35:11.101Z,102055.41
2023-06-22T09:37:39.464Z,102045.28
2023-06-22T09:40:12.544Z,102049.00
2023-06-22T09:42:41.086Z,102045.47
2023-06-22T09:45:11.758Z,102046.72
2023-06-22T09:47:40.131Z,102052.25
2023-06-22T09:50:09.828Z,102059.06
2023-06-22T09:55:10.139Z,102052.28
2023-06-22T09:57:38.762Z,102051.66
2023-06-22T10:00:12.890Z,102050.00
2023-06-22T10:02:43.615Z,102057.00
2023-06-22T10:05:12.492Z,102052.44
2023-06-22T10:07:44.714Z,102061.72
2023-06-22T10:10:14.539Z,102061.94
2023-06-22T10:12:45.401Z,102065.03
2023-06-22T10:15:13.678Z,102070.16
2023-06-22T10:17:43.836Z,102067.47
2023-06-22T10:20:15.320Z,102069.38
2023-06-22T10:22:45.103Z,102070.38
2023-06-22T10:25:15.037Z,102069.75
2023-06-22T10:27:43.392Z,102081.44
2023-06-22T10:30:14.103Z,102076.50
2023-06-22T10:32:45.334Z,102084.94
2023-06-22T10:35:26.271Z,102077.69
2023-06-22T10:37:55.735Z,102076.75
2023-06-22T10:40:23.848Z,102080.00
2023-06-22T10:42:52.373Z,102070.94
2023-06-22T10:45:20.656Z,102081.88
2023-06-22T10:47:50.531Z,102099.28
2023-06-22T10:50:18.890Z,102082.13
2023-06-22T10:52:47.041Z,102082.38
2023-06-22T10:55:15.240Z,102079.91
2023-06-22T10:57:45.564Z,102073.34
2023-06-22T11:00:15.491Z,102079.72
2023-06-22T11:02:44.137Z,102074.09
2023-06-22T11:05:13.904Z,102073.66
2023-06-22T11:10:18.267Z,102081.06
2023-06-22T11:12:46.540Z,102072.34
2023-06-22T11:15:15.193Z,102074.44
2023-06-22T11:17:43.425Z,102075.19
2023-06-22T11:20:14.103Z,102063.53
2023-06-22T11:22:42.965Z,102064.81
2023-06-22T11:25:12.880Z,102067.59
2023-06-22T11:27:41.835Z,102065.41
2023-06-22T11:30:10.993Z,102072.44
2023-06-22T11:32:39.348Z,102071.13
2023-06-22T11:35:08.324Z,102075.84
2023-06-22T11:37:38.126Z,102071.56
2023-06-22T11:40:10.071Z,102068.09
2023-06-22T11:42:38.337Z,102063.94
2023-06-22T11:45:10.046Z,102063.22
2023-06-22T11:47:38.785Z,102064.56
2023-06-22T11:50:08.670Z,102060.00
2023-06-22T11:52:38.547Z,102065.63
2023-06-22T11:55:08.111Z,102073.03
2023-06-22T11:57:38.126Z,102070.06
2023-06-22T12:00:17.520Z,102073.38
2023-06-22T12:02:46.437Z,102071.84
2023-06-22T12:05:14.858Z,102067.44
2023-06-22T12:07:44.687Z,102073.78
2023-06-22T12:10:13.125Z,102087.63
2023-06-22T12:12:42.732Z,102078.28
2023-06-22T12:15:12.861Z,102071.16
2023-06-22T12:17:41.177Z,102075.66
2023-06-22T12:20:10.525Z,102079.19
2023-06-22T12:22:39.776Z,102079.53
2023-06-22T12:25:10.220Z,102071.34
2023-06-22T12:27:39.047Z,102076.97
2023-06-22T12:30:08.298Z,102077.13
2023-06-22T12:32:36.661Z,102068.34
2023-06-22T12:35:05.421Z,102083.91
2023-06-22T12:37:34.994Z,102073.03
2023-06-22T12:40:04.933Z,102082.09
2023-06-22T12:42:34.579Z,102068.53
2023-06-22T12:45:02.822Z,102078.09
2023-06-22T12:47:31.043Z,102083.03
2023-06-22T12:49:59.330Z,102086.88
2023-06-22T12:52:27.721Z,102081.03
2023-06-22T12:54:56.343Z,102081.25
2023-06-22T12:57:24.745Z,102093.28
2023-06-22T12:59:54.433Z,102080.44
2023-06-22T13:02:22.710Z,102079.72
2023-06-22T13:04:50.934Z,102082.91
2023-06-22T13:07:23.400Z,102076.03
2023-06-22T13:09:53.857Z,102071.31
2023-06-22T13:12:23.020Z,102069.09
2023-06-22T13:14:51.628Z,102067.53
2023-06-22T13:17:21.620Z,102077.44
2023-06-22T13:19:49.942Z,102061.16
2023-06-22T13:22:30.430Z,102064.28
2023-06-22T13:24:59.016Z,102069.34
2023-06-22T13:27:27.373Z,102070.56
2023-06-22T13:29:56.003Z,102063.94
2023-06-22T13:32:25.642Z,102062.78
2023-06-22T13:34:55.126Z,102061.59
2023-06-22T13:37:23.269Z,102057.38
2023-06-22T13:39:51.561Z,102054.00
2023-06-22T13:42:20.314Z,102050.91
2023-06-22T13:44:48.527Z,102058.56
2023-06-22T13:47:17.041Z,102046.78
2023-06-22T13:49:46.582Z,102049.03
2023-06-22T13:52:14.731Z,102048.63
2023-06-22T13:54:42.873Z,102049.00
2023-06-22T13:57:11.199Z,102045.19
2023-06-22T13:59:39.406Z,102043.38
2023-06-22T14:02:08.296Z,102035.66
2023-06-22T14:04:36.545Z,102038.50
2023-06-22T14:07:06.728Z,102040.59
2023-06-22T14:09:34.949Z,102038.53
2023-06-22T14:12:07.158Z,102037.63
2023-06-22T14:14:35.662Z,102040.84
2023-06-22T14:17:04.066Z,102043.78
2023-06-22T14:19:32.625Z,102042.16
2023-06-22T14:22:00.925Z,102042.56
2023-06-22T14:24:31.273Z,102038.28
2023-06-22T14:27:00.274Z,102040.38
2023-06-22T14:29:28.627Z,102043.94
2023-06-22T14:31:56.914Z,102045.00
2023-06-22T14:34:25.252Z,102048.97
2023-06-22T14:36:53.831Z,102046.59
2023-06-22T14:39:22.725Z,102048.47
2023-06-22T14:41:52.328Z,102057.16
2023-06-22T14:44:20.616Z,102043.19
2023-06-22T14:46:48.793Z,102044.03
2023-06-22T14:49:17.016Z,102044.84
2023-06-22T14:51:45.264Z,102054.56
2023-06-22T14:54:13.452Z,102055.94
2023-06-22T14:56:42.232Z,102051.41
2023-06-22T14:59:12.158Z,102052.00
2023-06-22T15:01:42.042Z,102045.53
2023-06-22T15:04:10.495Z,102048.22
2023-06-22T15:06:38.712Z,102048.19
2023-06-22T15:09:06.968Z,102046.66
2023-06-22T15:11:35.205Z,102046.44
2023-06-22T15:14:03.409Z,102051.81
2023-06-22T15:16:33.112Z,102049.28
2023-06-22T15:19:01.293Z,102045.97
2023-06-22T15:21:29.483Z,102050.91
2023-06-22T15:23:57.974Z,102042.00
2023-06-22T15:26:26.131Z,102029.16
2023-06-22T15:28:55.233Z,102027.88
2023-06-22T15:31:23.631Z,102024.25
2023-06-22T15:33:53.407Z,102024.28
2023-06-22T15:36:21.696Z,102018.69
2023-06-22T15:38:49.896Z,102011.75
2023-06-22T15:41:18.645Z,102019.19
2023-06-22T15:43:46.790Z,102013.66
2023-06-22T15:46:17.280Z,102015.19
2023-06-22T15:48:46.794Z,102006.72
2023-06-22T15:51:18.125Z,102007.31
2023-06-22T15:53:46.313Z,102007.75
2023-06-22T15:56:14.547Z,102003.03
2023-06-22T15:58:42.880Z,101998.28
2023-06-22T16:01:11.176Z,102001.34
2023-06-22T16:03:40.291Z,102003.84
2023-06-22T16:06:09.062Z,101999.31
2023-06-22T16:08:38.664Z,101986.94
2023-06-22T16:11:07.029Z,101999.53
2023-06-22T16:13:35.537Z,102002.63
2023-06-22T16:16:03.687Z,101991.06
2023-06-22T16:18:31.898Z,101996.03
2023-06-22T16:21:00.148Z,102005.28
2023-06-22T16:23:28.509Z,101991.44
2023-06-22T16:25:58.152Z,101991.25
2023-06-22T16:28:26.709Z,101986.97
2023-06-22T16:30:54.947Z,101998.09
2023-06-22T16:33:23.188Z,101999.13
2023-06-22T16:35:51.488Z,101994.19
2023-06-22T16:38:19.697Z,101997.84
2023-06-22T16:40:47.952Z,101997.28
2023-06-22T16:43:17.750Z,102000.16
2023-06-22T16:45:45.992Z,102005.50
2023-06-22T16:48:14.273Z,101993.97
2023-06-22T16:50:42.624Z,101993.53
2023-06-22T16:53:11.334Z,101993.31
2023-06-22T16:55:40.468Z,101985.28
2023-06-22T16:58:08.909Z,101976.63
2023-06-22T17:00:38.599Z,101973.53
2023-06-22T17:03:11.897Z,101978.28
2023-06-22T17:05:41.174Z,101985.31
2023-06-22T17:08:12.706Z,101988.19
2023-06-22T17:10:40.653Z,101988.03
2023-06-22T17:13:09.758Z,101977.09
2023-06-22T17:15:41.751Z,101976.06
2023-06-22T17:18:11.383Z,101973.75
2023-06-22T17:20:39.682Z,101977.75
2023-06-22T17:23:08.024Z,101978.69
2023-06-22T17:25:37.128Z,101982.97
2023-06-22T17:28:05.523Z,101983.53
2023-06-22T17:30:34.131Z,101979.00
2023-06-22T17:33:04.632Z,101988.81
2023-06-22T17:35:33.504Z,101986.13
2023-06-22T17:38:02.528Z,101991.16
2023-06-22T17:40:31.870Z,101988.94
2023-06-22T17:43:06.781Z,101993.84
2023-06-22T17:45:43.425Z,101988.56
2023-06-22T17:48:13.624Z,101983.34
2023-06-22T17:50:42.882Z,101984.09
2023-06-22T17:53:12.557Z,101980.16
2023-06-22T17:55:41.074Z,101971.09
2023-06-22T17:58:09.627Z,101982.00
2023-06-22T18:00:38.441Z,101972.13
2023-06-22T18:03:06.969Z,101977.94
2023-06-22T18:05:40.452Z,101967.31
2023-06-22T18:08:09.190Z,101979.69
2023-06-22T18:10:39.121Z,101972.19
2023-06-22T18:13:07.928Z,101967.72
2023-06-22T18:15:38.341Z,101967.78
2023-06-22T18:18:07.543Z,101966.75
2023-06-22T18:20:38.984Z,101967.38
2023-06-22T18:23:10.823Z,101968.63
2023-06-22T18:25:40.450Z,101969.00
2023-06-22T18:28:09.488Z,101973.59
2023-06-22T18:30:38.830Z,101961.69
2023-06-22T18:33:07.149Z,101974.88
2023-06-22T18:35:38.809Z,101967.72
2023-06-22T18:38:08.407Z,101961.78
2023-06-22T18:40:36.816Z,101967.09
2023-06-22T18:43:05.480Z,101968.75
2023-06-22T18:45:35.310Z,101966.69
2023-06-22T18:48:05.035Z,101965.25
2023-06-22T18:50:44.239Z,101952.91
2023-06-22T18:53:27.088Z,101957.56
2023-06-22T18:56:13.639Z,101950.84
2023-06-22T18:58:41.983Z,101952.47
2023-06-22T19:01:20.572Z,101960.75
2023-06-22T19:03:55.015Z,101957.03
2023-06-22T19:06:58.528Z,101954.69
2023-06-22T19:09:26.820Z,101955.59
2023-06-22T19:12:19.978Z,101958.50
2023-06-22T19:15:13.563Z,101947.28
2023-06-22T19:17:44.569Z,101944.31
2023-06-22T19:20:13.840Z,101941.72
2023-06-22T19:22:56.248Z,101934.78
2023-06-22T19:25:27.456Z,101926.56
2023-06-22T19:27:56.616Z,101934.00
2023-06-22T19:30:25.702Z,101931.56
2023-06-22T19:32:53.993Z,101933.50
2023-06-22T19:35:23.019Z,101934.31
2023-06-22T19:37:52.649Z,101929.78
2023-06-22T19:40:22.506Z,101924.19
2023-06-22T19:42:56.826Z,101942.13
2023-06-22T19:45:25.428Z,101943.59
2023-06-22T19:47:53.716Z,101945.63
2023-06-22T19:50:25.879Z,101942.03
2023-06-22T19:52:56.871Z,101939.13
2023-06-22T19:55:25.128Z,101943.72
2023-06-22T19:57:53.331Z,101943.34
2023-06-22T20:00:23.598Z,101942.34
2023-06-22T20:02:55.364Z,101943.13
2023-06-22T20:05:24.242Z,101938.91
2023-06-22T20:07:52.550Z,101939.75
2023-06-22T20:10:23.606Z,101936.63
2023-06-22T20:12:53.102Z,101934.72
2023-06-22T20:15:23.285Z,101939.28
2023-06-22T20:17:58.912Z,101947.91
2023-06-22T20:20:29.016Z,101951.25
2023-06-22T20:22:58.701Z,101953.81
2023-06-22T20:25:33.593Z,101949.09
2023-06-22T20:28:07.205Z,101947.69
2023-06-22T20:30:36.308Z,101954.47
2023-06-22T20:33:06.921Z,101957.59
2023-06-22T20:35:35.377Z,101946.72
2023-06-22T20:38:03.607Z,101948.19
2023-06-22T20:40:33.506Z,101951.09
2023-06-22T20:43:04.018Z,101953.09
2023-06-22T20:45:34.865Z,101946.34
2023-06-22T20:48:05.380Z,101950.75
2023-06-22T20:50:34.643Z,101946.09
2023-06-22T20:53:04.930Z,101948.47
2023-06-22T20:55:38.486Z,101944.81
2023-06-22T20:58:07.381Z,101950.81
2023-06-22T21:00:38.014Z,101948.19
2023-06-22T21:03:09.516Z,101951.09
2023-06-22T21:05:37.591Z,101949.84
2023-06-22T21:08:06.206Z,101954.81
2023-06-22T21:10:35.833Z,101957.47
2023-06-22T21:13:04.020Z,101956.44
2023-06-22T21:15:32.555Z,101961.41
2023-06-22T21:18:00.972Z,101957.34
2023-06-22T21:20:29.280Z,101955.66
2023-06-22T21:22:57.545Z,101963.06
2023-06-22T21:25:25.832Z,101955.66
2023-06-22T21:27:55.598Z,101953.00
2023-06-22T21:30:23.825Z,101949.94
2023-06-22T21:32:52.069Z,101949.94
2023-06-22T21:35:20.286Z,101949.31
2023-06-22T21:37:48.618Z,101954.25
2023-06-22T21:40:16.992Z,101947.72
2023-06-22T21:42:45.102Z,101951.22
2023-06-22T21:45:14.790Z,101947.13
2023-06-22T21:47:43.106Z,101953.50
2023-06-22T21:50:12.146Z,101955.31
2023-06-22T21:52:40.276Z,101959.47
2023-06-22T21:55:09.174Z,101955.97
2023-06-22T21:57:37.326Z,101962.91
2023-06-22T22:00:07.957Z,101960.66
2023-06-22T22:02:37.886Z,101953.50
2023-06-22T22:05:08.265Z,101955.75
2023-06-22T22:07:36.504Z,101948.78
2023-06-22T22:10:05.018Z,101947.13
2023-06-22T22:12:33.174Z,101951.44
2023-06-22T22:15:01.509Z,101949.59
2023-06-22T22:17:29.821Z,101953.09
2023-06-22T22:19:59.562Z,101946.31
2023-06-22T22:22:27.790Z,101935.19
2023-06-22T22:24:56.154Z,101937.84
2023-06-22T22:27:24.408Z,101937.84
2023-06-22T22:29:52.587Z,101942.16
2023-06-22T22:32:20.832Z,101943.81
2023-06-22T22:34:49.141Z,101941.13
2023-06-22T22:37:18.895Z,101933.78
2023-06-22T22:39:48.726Z,101931.72
2023-06-22T22:42:18.452Z,101931.34
2023-06-22T22:44:46.674Z,101936.47
2023-06-22T22:47:14.948Z,101926.63
2023-06-22T22:49:43.231Z,101923.13
2023-06-22T22:52:11.849Z,101924.34
2023-06-22T22:54:44.225Z,101914.28
2023-06-22T22:57:12.679Z,101914.28
2023-06-22T22:59:41.303Z,101918.81
2023-06-22T23:02:10.246Z,101915.69
2023-06-22T23:04:41.293Z,101916.72
2023-06-22T23:07:09.615Z,101916.94
2023-06-22T23:09:38.196Z,101911.38
2023-06-22T23:12:08.844Z,101902.53
2023-06-22T23:14:37.113Z,101896.81
2023-06-22T23:17:05.569Z,101890.44
2023-06-22T23:19:35.516Z,101886.53
2023-06-22T23:22:03.819Z,101894.16
2023-06-22T23:24:32.325Z,101898.50
2023-06-22T23:27:00.686Z,101896.63
2023-06-22T23:29:33.159Z,101894.59
2023-06-22T23:32:01.814Z,101892.13
2023-06-22T23:34:30.295Z,101905.31
2023-06-22T23:36:58.614Z,101914.75
2023-06-22T23:39:27.568Z,101900.63
2023-06-22T23:41:55.910Z,101899.38
2023-06-22T23:44:25.980Z,101903.91
2023-06-22T23:46:59.136Z,101917.66
2023-06-22T23:49:27.524Z,101922.41
2023-06-22T23:51:55.704Z,101919.34
2023-06-22T23:54:23.933Z,101919.94
2023-06-22T23:56:53.728Z,101920.97
2023-06-22T23:59:22.110Z,101927.59
